sensor_id;sensor_type;location;lat;lon;timestamp;P1;durP1;ratioP1;P2;durP2;ratioP2
21337;SDS011;72379;50.880;4.350;2024-01-15T00:01:01;39.10;;;15.60;;
21337;SDS011;72379;50.880;4.350;2024-01-15T00:03:28;31.40;;;12.27;;
21337;SDS011;72379;50.880;4.350;2024-01-15T00:05:54;38.33;;;14.23;;
21337;SDS011;72379;50.880;4.350;2024-01-15T00:08:20;42.83;;;15.13;;
21337;SDS011;72379;50.880;4.350;2024-01-15T00:10:46;46.17;;;14.77;;
21337;SDS011;72379;50.880;4.350;2024-01-15T00:13:12;32.73;;;12.47;;
21337;SDS011;72379;50.880;4.350;2024-01-15T00:15:38;31.27;;;12.50;;
21337;SDS011;72379;50.880;4.350;2024-01-15T00:18:04;34.60;;;13.87;;
21337;SDS011;72379;50.880;4.350;2024-01-15T00:20:30;34.07;;;14.03;;
21337;SDS011;72379;50.880;4.350;2024-01-15T00:22:56;33.13;;;12.67;;
21337;SDS011;72379;50.880;4.350;2024-01-15T00:25:22;34.83;;;13.20;;
21337;SDS011;72379;50.880;4.350;2024-01-15T00:27:48;34.03;;;12.17;;
21337;SDS011;72379;50.880;4.350;2024-01-15T00:30:14;35.73;;;12.97;;
21337;SDS011;72379;50.880;4.350;2024-01-15T00:32:40;30.77;;;11.50;;
21337;SDS011;72379;50.880;4.350;2024-01-15T00:35:06;29.97;;;10.93;;
21337;SDS011;72379;50.880;4.350;2024-01-15T00:37:32;31.27;;;11.03;;
21337;SDS011;72379;50.880;4.350;2024-01-15T00:39:58;24.83;;;11.10;;
21337;SDS011;72379;50.880;4.350;2024-01-15T00:42:24;23.53;;;9.97;;
21337;SDS011;72379;50.880;4.350;2024-01-15T00:44:50;22.40;;;9.80;;
21337;SDS011;72379;50.880;4.350;2024-01-15T00:47:17;26.93;;;10.20;;
21337;SDS011;72379;50.880;4.350;2024-01-15T00:49:44;23.87;;;8.10;;
21337;SDS011;72379;50.880;4.350;2024-01-15T00:52:10;21.13;;;9.17;;
21337;SDS011;72379;50.880;4.350;2024-01-15T00:54:36;22.47;;;9.93;;
21337;SDS011;72379;50.880;4.350;2024-01-15T00:57:03;22.10;;;8.30;;
21337;SDS011;72379;50.880;4.350;2024-01-15T00:59:29;17.70;;;7.60;;
21337;SDS011;72379;50.880;4.350;2024-01-15T01:01:57;17.27;;;8.20;;
21337;SDS011;72379;50.880;4.350;2024-01-15T01:04:23;17.47;;;7.37;;
21337;SDS011;72379;50.880;4.350;2024-01-15T01:06:57;15.13;;;7.57;;
21337;SDS011;72379;50.880;4.350;2024-01-15T01:09:22;10.50;;;4.00;;
21337;SDS011;72379;50.880;4.350;2024-01-15T01:11:49;11.77;;;5.57;;
21337;SDS011;72379;50.880;4.350;2024-01-15T01:14:15;14.43;;;6.90;;
21337;SDS011;72379;50.880;4.350;2024-01-15T01:16:43;16.43;;;6.30;;
21337;SDS011;72379;50.880;4.350;2024-01-15T01:19:09;14.03;;;6.90;;
21337;SDS011;72379;50.880;4.350;2024-01-15T01:21:37;13.90;;;6.40;;
21337;SDS011;72379;50.880;4.350;2024-01-15T01:24:04;14.53;;;5.60;;
21337;SDS011;72379;50.880;4.350;2024-01-15T01:26:30;12.30;;;6.57;;
21337;SDS011;72379;50.880;4.350;2024-01-15T01:28:56;15.30;;;6.43;;
21337;SDS011;72379;50.880;4.350;2024-01-15T01:31:23;11.70;;;5.80;;
21337;SDS011;72379;50.880;4.350;2024-01-15T01:33:48;25.63;;;12.70;;
21337;SDS011;72379;50.880;4.350;2024-01-15T01:36:14;13.77;;;7.43;;
21337;SDS011;72379;50.880;4.350;2024-01-15T01:38:41;17.37;;;6.80;;
21337;SDS011;72379;50.880;4.350;2024-01-15T01:41:07;10.87;;;5.90;;
21337;SDS011;72379;50.880;4.350;2024-01-15T01:43:33;14.33;;;5.60;;
21337;SDS011;72379;50.880;4.350;2024-01-15T01:46:00;15.40;;;7.40;;
21337;SDS011;72379;50.880;4.350;2024-01-15T01:48:26;13.43;;;6.13;;
21337;SDS011;72379;50.880;4.350;2024-01-15T01:50:53;10.70;;;5.03;;
21337;SDS011;72379;50.880;4.350;2024-01-15T01:53:22;13.43;;;5.37;;
21337;SDS011;72379;50.880;4.350;2024-01-15T01:55:48;10.67;;;5.67;;
21337;SDS011;72379;50.880;4.350;2024-01-15T01:58:15;10.93;;;5.53;;
21337;SDS011;72379;50.880;4.350;2024-01-15T02:00:42;11.57;;;5.20;;
21337;SDS011;72379;50.880;4.350;2024-01-15T02:03:08;8.93;;;4.90;;
21337;SDS011;72379;50.880;4.350;2024-01-15T02:05:34;10.23;;;3.70;;
21337;SDS011;72379;50.880;4.350;2024-01-15T02:08:05;8.17;;;4.00;;
21337;SDS011;72379;50.880;4.350;2024-01-15T02:10:31;8.50;;;4.17;;
21337;SDS011;72379;50.880;4.350;2024-01-15T02:12:57;8.97;;;3.97;;
21337;SDS011;72379;50.880;4.350;2024-01-15T02:15:24;6.10;;;3.27;;
21337;SDS011;72379;50.880;4.350;2024-01-15T02:17:56;8.77;;;4.17;;
21337;SDS011;72379;50.880;4.350;2024-01-15T02:20:27;8.87;;;3.67;;
21337;SDS011;72379;50.880;4.350;2024-01-15T02:22:53;6.67;;;3.70;;
21337;SDS011;72379;50.880;4.350;2024-01-15T02:25:19;7.90;;;4.60;;
21337;SDS011;72379;50.880;4.350;2024-01-15T02:27:45;10.00;;;4.03;;
21337;SDS011;72379;50.880;4.350;2024-01-15T02:30:12;6.47;;;3.80;;
21337;SDS011;72379;50.880;4.350;2024-01-15T02:32:38;9.90;;;5.00;;
21337;SDS011;72379;50.880;4.350;2024-01-15T02:35:05;10.53;;;4.67;;
21337;SDS011;72379;50.880;4.350;2024-01-15T02:37:31;14.80;;;5.60;;
21337;SDS011;72379;50.880;4.350;2024-01-15T02:39:57;10.33;;;3.57;;
21337;SDS011;72379;50.880;4.350;2024-01-15T02:42:23;6.40;;;3.33;;
21337;SDS011;72379;50.880;4.350;2024-01-15T02:44:51;12.20;;;3.60;;
21337;SDS011;72379;50.880;4.350;2024-01-15T02:47:16;6.97;;;3.60;;
21337;SDS011;72379;50.880;4.350;2024-01-15T02:49:42;7.67;;;3.87;;
21337;SDS011;72379;50.880;4.350;2024-01-15T02:52:08;5.90;;;2.57;;
21337;SDS011;72379;50.880;4.350;2024-01-15T02:54:34;6.23;;;3.20;;
21337;SDS011;72379;50.880;4.350;2024-01-15T02:57:00;5.13;;;3.27;;
21337;SDS011;72379;50.880;4.350;2024-01-15T02:59:26;7.67;;;3.17;;
21337;SDS011;72379;50.880;4.350;2024-01-15T03:01:52;7.40;;;3.73;;
21337;SDS011;72379;50.880;4.350;2024-01-15T03:04:18;9.77;;;4.23;;
21337;SDS011;72379;50.880;4.350;2024-01-15T03:06:44;8.13;;;4.27;;
21337;SDS011;72379;50.880;4.350;2024-01-15T03:09:10;8.00;;;4.67;;
21337;SDS011;72379;50.880;4.350;2024-01-15T03:11:36;12.67;;;5.10;;
21337;SDS011;72379;50.880;4.350;2024-01-15T03:14:03;11.27;;;5.40;;
21337;SDS011;72379;50.880;4.350;2024-01-15T03:16:29;12.30;;;5.90;;
21337;SDS011;72379;50.880;4.350;2024-01-15T03:18:54;12.13;;;5.40;;
21337;SDS011;72379;50.880;4.350;2024-01-15T03:21:21;11.07;;;4.90;;
21337;SDS011;72379;50.880;4.350;2024-01-15T03:23:50;15.67;;;6.77;;
21337;SDS011;72379;50.880;4.350;2024-01-15T03:26:16;20.43;;;6.70;;
21337;SDS011;72379;50.880;4.350;2024-01-15T03:28:42;10.03;;;4.87;;
21337;SDS011;72379;50.880;4.350;2024-01-15T03:31:08;14.80;;;6.77;;
21337;SDS011;72379;50.880;4.350;2024-01-15T03:33:34;20.50;;;7.17;;
21337;SDS011;72379;50.880;4.350;2024-01-15T03:36:00;16.67;;;7.57;;
21337;SDS011;72379;50.880;4.350;2024-01-15T03:38:27;20.20;;;6.70;;
21337;SDS011;72379;50.880;4.350;2024-01-15T03:40:54;17.07;;;7.83;;
21337;SDS011;72379;50.880;4.350;2024-01-15T03:43:20;16.43;;;6.93;;
21337;SDS011;72379;50.880;4.350;2024-01-15T03:45:46;17.20;;;7.60;;
21337;SDS011;72379;50.880;4.350;2024-01-15T03:48:12;20.17;;;7.83;;
21337;SDS011;72379;50.880;4.350;2024-01-15T03:50:38;17.40;;;7.67;;
21337;SDS011;72379;50.880;4.350;2024-01-15T03:53:04;19.17;;;7.87;;
21337;SDS011;72379;50.880;4.350;2024-01-15T03:58:07;19.60;;;8.93;;
21337;SDS011;72379;50.880;4.350;2024-01-15T04:00:32;15.60;;;8.30;;
21337;SDS011;72379;50.880;4.350;2024-01-15T04:02:58;21.40;;;8.80;;
21337;SDS011;72379;50.880;4.350;2024-01-15T04:05:25;18.57;;;8.73;;
21337;SDS011;72379;50.880;4.350;2024-01-15T04:07:51;21.37;;;9.60;;
21337;SDS011;72379;50.880;4.350;2024-01-15T04:10:17;22.73;;;8.73;;
21337;SDS011;72379;50.880;4.350;2024-01-15T04:12:43;21.73;;;9.27;;
21337;SDS011;72379;50.880;4.350;2024-01-15T04:15:11;40.67;;;15.77;;
21337;SDS011;72379;50.880;4.350;2024-01-15T04:17:38;25.63;;;10.17;;
21337;SDS011;72379;50.880;4.350;2024-01-15T04:20:04;26.70;;;10.77;;
21337;SDS011;72379;50.880;4.350;2024-01-15T04:22:31;26.60;;;10.20;;
21337;SDS011;72379;50.880;4.350;2024-01-15T04:24:57;23.90;;;9.37;;
21337;SDS011;72379;50.880;4.350;2024-01-15T04:27:23;29.67;;;11.53;;
21337;SDS011;72379;50.880;4.350;2024-01-15T04:29:49;26.23;;;11.20;;
21337;SDS011;72379;50.880;4.350;2024-01-15T04:32:15;20.70;;;8.20;;
21337;SDS011;72379;50.880;4.350;2024-01-15T04:34:41;23.70;;;10.60;;
21337;SDS011;72379;50.880;4.350;2024-01-15T04:37:07;28.80;;;11.23;;
21337;SDS011;72379;50.880;4.350;2024-01-15T04:39:33;22.20;;;10.50;;
21337;SDS011;72379;50.880;4.350;2024-01-15T04:41:59;22.30;;;9.43;;
21337;SDS011;72379;50.880;4.350;2024-01-15T04:44:25;19.27;;;9.70;;
21337;SDS011;72379;50.880;4.350;2024-01-15T04:46:51;19.30;;;7.40;;
21337;SDS011;72379;50.880;4.350;2024-01-15T04:49:18;23.37;;;8.63;;
21337;SDS011;72379;50.880;4.350;2024-01-15T04:51:43;16.13;;;8.07;;
21337;SDS011;72379;50.880;4.350;2024-01-15T04:54:09;15.63;;;7.53;;
21337;SDS011;72379;50.880;4.350;2024-01-15T04:56:36;18.53;;;7.10;;
21337;SDS011;72379;50.880;4.350;2024-01-15T04:59:02;20.03;;;6.83;;
21337;SDS011;72379;50.880;4.350;2024-01-15T05:01:32;16.90;;;6.60;;
21337;SDS011;72379;50.880;4.350;2024-01-15T05:03:58;14.90;;;5.90;;
21337;SDS011;72379;50.880;4.350;2024-01-15T05:06:25;11.57;;;4.93;;
21337;SDS011;72379;50.880;4.350;2024-01-15T05:08:51;10.07;;;4.03;;
21337;SDS011;72379;50.880;4.350;2024-01-15T05:11:17;8.93;;;4.20;;
21337;SDS011;72379;50.880;4.350;2024-01-15T05:13:42;9.90;;;4.10;;
21337;SDS011;72379;50.880;4.350;2024-01-15T05:16:08;7.47;;;3.63;;
21337;SDS011;72379;50.880;4.350;2024-01-15T05:18:34;11.40;;;3.40;;
21337;SDS011;72379;50.880;4.350;2024-01-15T05:21:02;7.30;;;3.33;;
21337;SDS011;72379;50.880;4.350;2024-01-15T05:23:31;7.93;;;3.07;;
21337;SDS011;72379;50.880;4.350;2024-01-15T05:25:57;7.60;;;2.97;;
21337;SDS011;72379;50.880;4.350;2024-01-15T05:28:23;4.90;;;2.27;;
21337;SDS011;72379;50.880;4.350;2024-01-15T05:30:49;7.07;;;2.90;;
21337;SDS011;72379;50.880;4.350;2024-01-15T05:33:16;4.77;;;2.33;;
21337;SDS011;72379;50.880;4.350;2024-01-15T05:35:42;5.87;;;2.33;;
21337;SDS011;72379;50.880;4.350;2024-01-15T05:38:08;4.87;;;2.07;;
21337;SDS011;72379;50.880;4.350;2024-01-15T05:40:34;5.47;;;2.07;;
21337;SDS011;72379;50.880;4.350;2024-01-15T05:43:01;6.77;;;2.10;;
21337;SDS011;72379;50.880;4.350;2024-01-15T05:45:26;7.20;;;3.07;;
21337;SDS011;72379;50.880;4.350;2024-01-15T05:47:52;9.20;;;2.60;;
21337;SDS011;72379;50.880;4.350;2024-01-15T05:50:20;8.03;;;2.50;;
21337;SDS011;72379;50.880;4.350;2024-01-15T05:52:47;2.57;;;1.53;;
21337;SDS011;72379;50.880;4.350;2024-01-15T05:55:14;8.37;;;2.20;;
21337;SDS011;72379;50.880;4.350;2024-01-15T05:57:41;5.23;;;2.17;;
21337;SDS011;72379;50.880;4.350;2024-01-15T06:00:07;2.83;;;1.90;;
21337;SDS011;72379;50.880;4.350;2024-01-15T06:02:33;5.77;;;2.17;;
21337;SDS011;72379;50.880;4.350;2024-01-15T06:05:00;9.17;;;1.97;;
21337;SDS011;72379;50.880;4.350;2024-01-15T06:07:28;2.37;;;1.47;;
21337;SDS011;72379;50.880;4.350;2024-01-15T06:09:54;11.13;;;2.00;;
21337;SDS011;72379;50.880;4.350;2024-01-15T06:12:22;7.80;;;1.60;;
21337;SDS011;72379;50.880;4.350;2024-01-15T06:14:47;7.73;;;2.07;;
21337;SDS011;72379;50.880;4.350;2024-01-15T06:17:13;5.10;;;1.70;;
21337;SDS011;72379;50.880;4.350;2024-01-15T06:19:40;5.27;;;1.23;;
21337;SDS011;72379;50.880;4.350;2024-01-15T06:22:06;4.07;;;1.20;;
21337;SDS011;72379;50.880;4.350;2024-01-15T06:24:32;5.87;;;1.40;;
21337;SDS011;72379;50.880;4.350;2024-01-15T06:26:58;10.87;;;1.70;;
21337;SDS011;72379;50.880;4.350;2024-01-15T06:29:25;4.13;;;1.77;;
21337;SDS011;72379;50.880;4.350;2024-01-15T06:31:52;5.93;;;2.60;;
21337;SDS011;72379;50.880;4.350;2024-01-15T06:34:18;7.23;;;2.00;;
21337;SDS011;72379;50.880;4.350;2024-01-15T06:36:44;4.43;;;2.03;;
21337;SDS011;72379;50.880;4.350;2024-01-15T06:39:10;3.77;;;1.77;;
21337;SDS011;72379;50.880;4.350;2024-01-15T06:41:36;8.37;;;2.70;;
21337;SDS011;72379;50.880;4.350;2024-01-15T06:44:11;7.20;;;2.70;;
21337;SDS011;72379;50.880;4.350;2024-01-15T06:46:44;4.60;;;2.20;;
21337;SDS011;72379;50.880;4.350;2024-01-15T06:49:11;8.77;;;2.57;;
21337;SDS011;72379;50.880;4.350;2024-01-15T06:51:37;7.17;;;2.23;;
21337;SDS011;72379;50.880;4.350;2024-01-15T06:54:03;8.67;;;2.53;;
21337;SDS011;72379;50.880;4.350;2024-01-15T06:56:29;8.03;;;2.53;;
21337;SDS011;72379;50.880;4.350;2024-01-15T06:58:55;4.57;;;2.47;;
21337;SDS011;72379;50.880;4.350;2024-01-15T07:01:21;6.97;;;2.60;;
21337;SDS011;72379;50.880;4.350;2024-01-15T07:03:47;8.77;;;2.67;;
21337;SDS011;72379;50.880;4.350;2024-01-15T07:06:13;4.07;;;2.47;;
21337;SDS011;72379;50.880;4.350;2024-01-15T07:08:39;6.03;;;2.27;;
21337;SDS011;72379;50.880;4.350;2024-01-15T07:11:05;6.67;;;2.70;;
21337;SDS011;72379;50.880;4.350;2024-01-15T07:13:32;8.83;;;2.97;;
21337;SDS011;72379;50.880;4.350;2024-01-15T07:15:58;10.30;;;2.43;;
21337;SDS011;72379;50.880;4.350;2024-01-15T07:18:24;8.33;;;2.60;;
21337;SDS011;72379;50.880;4.350;2024-01-15T07:20:51;5.83;;;2.63;;
21337;SDS011;72379;50.880;4.350;2024-01-15T07:23:17;6.40;;;2.20;;
21337;SDS011;72379;50.880;4.350;2024-01-15T07:25:43;4.60;;;2.07;;
21337;SDS011;72379;50.880;4.350;2024-01-15T07:28:09;6.77;;;3.07;;
21337;SDS011;72379;50.880;4.350;2024-01-15T07:30:35;5.77;;;1.90;;
21337;SDS011;72379;50.880;4.350;2024-01-15T07:33:03;3.80;;;1.67;;
21337;SDS011;72379;50.880;4.350;2024-01-15T07:35:29;7.77;;;2.63;;
21337;SDS011;72379;50.880;4.350;2024-01-15T07:37:57;7.30;;;2.77;;
21337;SDS011;72379;50.880;4.350;2024-01-15T07:40:22;8.50;;;2.70;;
21337;SDS011;72379;50.880;4.350;2024-01-15T07:42:49;6.17;;;2.50;;
21337;SDS011;72379;50.880;4.350;2024-01-15T07:45:15;7.67;;;3.53;;
21337;SDS011;72379;50.880;4.350;2024-01-15T07:47:41;11.43;;;2.90;;
21337;SDS011;72379;50.880;4.350;2024-01-15T07:50:07;7.30;;;3.37;;
21337;SDS011;72379;50.880;4.350;2024-01-15T07:52:33;8.17;;;3.47;;
21337;SDS011;72379;50.880;4.350;2024-01-15T07:55:00;14.50;;;4.20;;
21337;SDS011;72379;50.880;4.350;2024-01-15T07:57:26;9.93;;;3.33;;
21337;SDS011;72379;50.880;4.350;2024-01-15T07:59:52;9.70;;;3.57;;
21337;SDS011;72379;50.880;4.350;2024-01-15T08:02:18;7.50;;;3.13;;
21337;SDS011;72379;50.880;4.350;2024-01-15T08:04:45;8.60;;;3.60;;
21337;SDS011;72379;50.880;4.350;2024-01-15T08:07:11;7.90;;;3.10;;
21337;SDS011;72379;50.880;4.350;2024-01-15T08:09:38;9.47;;;3.93;;
21337;SDS011;72379;50.880;4.350;2024-01-15T08:12:04;11.07;;;4.07;;
21337;SDS011;72379;50.880;4.350;2024-01-15T08:14:31;12.97;;;3.73;;
21337;SDS011;72379;50.880;4.350;2024-01-15T08:16:58;7.83;;;2.93;;
21337;SDS011;72379;50.880;4.350;2024-01-15T08:19:24;7.07;;;2.73;;
21337;SDS011;72379;50.880;4.350;2024-01-15T08:21:50;10.23;;;3.10;;
21337;SDS011;72379;50.880;4.350;2024-01-15T08:24:16;7.23;;;2.33;;
21337;SDS011;72379;50.880;4.350;2024-01-15T08:26:43;14.20;;;2.80;;
21337;SDS011;72379;50.880;4.350;2024-01-15T08:29:08;7.60;;;2.80;;
21337;SDS011;72379;50.880;4.350;2024-01-15T08:31:34;6.93;;;3.60;;
21337;SDS011;72379;50.880;4.350;2024-01-15T08:34:00;6.77;;;3.13;;
21337;SDS011;72379;50.880;4.350;2024-01-15T08:36:27;17.87;;;3.60;;
21337;SDS011;72379;50.880;4.350;2024-01-15T08:38:55;7.67;;;2.70;;
21337;SDS011;72379;50.880;4.350;2024-01-15T08:41:21;8.73;;;2.70;;
21337;SDS011;72379;50.880;4.350;2024-01-15T08:43:47;6.90;;;2.80;;
21337;SDS011;72379;50.880;4.350;2024-01-15T08:46:13;9.50;;;2.70;;
21337;SDS011;72379;50.880;4.350;2024-01-15T08:48:39;10.50;;;2.47;;
21337;SDS011;72379;50.880;4.350;2024-01-15T08:51:04;8.43;;;2.30;;
21337;SDS011;72379;50.880;4.350;2024-01-15T08:53:31;6.47;;;2.77;;
21337;SDS011;72379;50.880;4.350;2024-01-15T08:55:57;10.27;;;2.50;;
21337;SDS011;72379;50.880;4.350;2024-01-15T08:58:23;6.27;;;2.37;;
21337;SDS011;72379;50.880;4.350;2024-01-15T09:00:49;8.57;;;2.50;;
21337;SDS011;72379;50.880;4.350;2024-01-15T09:03:16;7.90;;;2.23;;
21337;SDS011;72379;50.880;4.350;2024-01-15T09:05:41;6.50;;;2.27;;
21337;SDS011;72379;50.880;4.350;2024-01-15T09:08:08;9.97;;;2.30;;
21337;SDS011;72379;50.880;4.350;2024-01-15T09:10:35;9.97;;;2.23;;
21337;SDS011;72379;50.880;4.350;2024-01-15T09:13:02;7.70;;;1.83;;
21337;SDS011;72379;50.880;4.350;2024-01-15T09:15:29;4.57;;;2.07;;
21337;SDS011;72379;50.880;4.350;2024-01-15T09:17:55;5.50;;;2.10;;
21337;SDS011;72379;50.880;4.350;2024-01-15T09:20:24;7.27;;;2.10;;
21337;SDS011;72379;50.880;4.350;2024-01-15T09:22:53;10.83;;;1.80;;
21337;SDS011;72379;50.880;4.350;2024-01-15T09:25:19;6.53;;;2.10;;
21337;SDS011;72379;50.880;4.350;2024-01-15T09:27:45;4.73;;;1.63;;
21337;SDS011;72379;50.880;4.350;2024-01-15T09:30:11;1.73;;;1.43;;
21337;SDS011;72379;50.880;4.350;2024-01-15T09:32:37;7.23;;;1.67;;
21337;SDS011;72379;50.880;4.350;2024-01-15T09:35:03;9.03;;;2.27;;
21337;SDS011;72379;50.880;4.350;2024-01-15T09:37:29;4.20;;;1.50;;
21337;SDS011;72379;50.880;4.350;2024-01-15T09:39:55;8.73;;;2.13;;
21337;SDS011;72379;50.880;4.350;2024-01-15T09:42:23;6.27;;;2.10;;
21337;SDS011;72379;50.880;4.350;2024-01-15T09:44:51;7.23;;;1.77;;
21337;SDS011;72379;50.880;4.350;2024-01-15T09:47:17;5.77;;;2.40;;
21337;SDS011;72379;50.880;4.350;2024-01-15T09:49:44;5.90;;;1.53;;
21337;SDS011;72379;50.880;4.350;2024-01-15T09:52:10;7.97;;;2.67;;
21337;SDS011;72379;50.880;4.350;2024-01-15T09:54:37;7.93;;;2.10;;
21337;SDS011;72379;50.880;4.350;2024-01-15T09:57:03;5.87;;;1.80;;
21337;SDS011;72379;50.880;4.350;2024-01-15T09:59:29;6.20;;;1.57;;
21337;SDS011;72379;50.880;4.350;2024-01-15T10:01:57;7.07;;;1.90;;
21337;SDS011;72379;50.880;4.350;2024-01-15T10:04:25;5.50;;;1.57;;
21337;SDS011;72379;50.880;4.350;2024-01-15T10:06:51;6.77;;;1.90;;
21337;SDS011;72379;50.880;4.350;2024-01-15T10:09:17;4.70;;;1.87;;
21337;SDS011;72379;50.880;4.350;2024-01-15T10:11:43;6.37;;;1.50;;
21337;SDS011;72379;50.880;4.350;2024-01-15T10:14:10;6.67;;;1.50;;
21337;SDS011;72379;50.880;4.350;2024-01-15T10:16:37;4.63;;;1.80;;
21337;SDS011;72379;50.880;4.350;2024-01-15T10:19:04;4.70;;;1.77;;
21337;SDS011;72379;50.880;4.350;2024-01-15T10:21:33;6.40;;;1.67;;
21337;SDS011;72379;50.880;4.350;2024-01-15T10:24:03;8.27;;;2.10;;
21337;SDS011;72379;50.880;4.350;2024-01-15T10:26:29;9.93;;;1.80;;
21337;SDS011;72379;50.880;4.350;2024-01-15T10:28:56;3.60;;;1.50;;
21337;SDS011;72379;50.880;4.350;2024-01-15T10:31:23;6.03;;;1.57;;
21337;SDS011;72379;50.880;4.350;2024-01-15T10:33:49;10.60;;;2.07;;
21337;SDS011;72379;50.880;4.350;2024-01-15T10:36:17;13.10;;;3.30;;
21337;SDS011;72379;50.880;4.350;2024-01-15T10:38:43;3.77;;;1.43;;
21337;SDS011;72379;50.880;4.350;2024-01-15T10:41:09;11.00;;;1.80;;
21337;SDS011;72379;50.880;4.350;2024-01-15T10:43:35;7.33;;;1.80;;
21337;SDS011;72379;50.880;4.350;2024-01-15T10:46:01;3.63;;;1.70;;
21337;SDS011;72379;50.880;4.350;2024-01-15T10:48:28;11.07;;;1.97;;
21337;SDS011;72379;50.880;4.350;2024-01-15T10:50:56;4.77;;;1.17;;
21337;SDS011;72379;50.880;4.350;2024-01-15T10:53:23;6.47;;;1.37;;
21337;SDS011;72379;50.880;4.350;2024-01-15T10:55:50;6.67;;;1.40;;
21337;SDS011;72379;50.880;4.350;2024-01-15T10:58:20;10.10;;;1.73;;
21337;SDS011;72379;50.880;4.350;2024-01-15T11:00:47;3.33;;;1.30;;
21337;SDS011;72379;50.880;4.350;2024-01-15T11:03:13;5.90;;;1.63;;
21337;SDS011;72379;50.880;4.350;2024-01-15T11:05:39;7.77;;;1.60;;
21337;SDS011;72379;50.880;4.350;2024-01-15T11:08:08;5.20;;;1.80;;
21337;SDS011;72379;50.880;4.350;2024-01-15T11:10:38;7.93;;;2.00;;
21337;SDS011;72379;50.880;4.350;2024-01-15T11:13:07;5.13;;;1.67;;
21337;SDS011;72379;50.880;4.350;2024-01-15T11:15:57;2.77;;;0.90;;
21337;SDS011;72379;50.880;4.350;2024-01-15T11:18:27;2.53;;;0.73;;
21337;SDS011;72379;50.880;4.350;2024-01-15T11:23:41;5.97;;;1.60;;
21337;SDS011;72379;50.880;4.350;2024-01-15T11:28:59;2.43;;;0.90;;
21337;SDS011;72379;50.880;4.350;2024-01-15T11:34:08;1.97;;;1.00;;
21337;SDS011;72379;50.880;4.350;2024-01-15T11:41:57;5.33;;;1.50;;
21337;SDS011;72379;50.880;4.350;2024-01-15T11:44:24;1.43;;;0.77;;
21337;SDS011;72379;50.880;4.350;2024-01-15T11:47:00;5.80;;;1.47;;
21337;SDS011;72379;50.880;4.350;2024-01-15T11:52:19;7.60;;;1.50;;
21337;SDS011;72379;50.880;4.350;2024-01-15T11:57:51;3.97;;;1.43;;
21337;SDS011;72379;50.880;4.350;2024-01-15T12:00:19;6.70;;;1.90;;
21337;SDS011;72379;50.880;4.350;2024-01-15T12:02:46;6.70;;;1.70;;
21337;SDS011;72379;50.880;4.350;2024-01-15T12:05:13;7.70;;;1.63;;
21337;SDS011;72379;50.880;4.350;2024-01-15T12:07:40;3.93;;;1.83;;
21337;SDS011;72379;50.880;4.350;2024-01-15T12:10:16;5.03;;;1.40;;
21337;SDS011;72379;50.880;4.350;2024-01-15T12:12:52;9.30;;;1.37;;
21337;SDS011;72379;50.880;4.350;2024-01-15T12:15:30;6.17;;;1.10;;
21337;SDS011;72379;50.880;4.350;2024-01-15T12:18:03;6.80;;;0.93;;
21337;SDS011;72379;50.880;4.350;2024-01-15T12:20:30;6.73;;;1.37;;
21337;SDS011;72379;50.880;4.350;2024-01-15T12:22:58;5.27;;;1.20;;
21337;SDS011;72379;50.880;4.350;2024-01-15T12:25:24;4.40;;;1.20;;
21337;SDS011;72379;50.880;4.350;2024-01-15T12:27:58;4.10;;;1.33;;
21337;SDS011;72379;50.880;4.350;2024-01-15T12:30:28;8.50;;;1.37;;
21337;SDS011;72379;50.880;4.350;2024-01-15T12:32:56;7.73;;;1.47;;
21337;SDS011;72379;50.880;4.350;2024-01-15T12:35:25;3.83;;;1.23;;
21337;SDS011;72379;50.880;4.350;2024-01-15T12:37:55;3.67;;;1.47;;
21337;SDS011;72379;50.880;4.350;2024-01-15T12:40:21;8.20;;;1.60;;
21337;SDS011;72379;50.880;4.350;2024-01-15T12:42:48;1.73;;;1.03;;
21337;SDS011;72379;50.880;4.350;2024-01-15T12:47:42;3.00;;;1.10;;
21337;SDS011;72379;50.880;4.350;2024-01-15T12:50:09;2.87;;;1.17;;
21337;SDS011;72379;50.880;4.350;2024-01-15T12:52:36;6.70;;;2.10;;
21337;SDS011;72379;50.880;4.350;2024-01-15T12:55:04;8.90;;;1.80;;
21337;SDS011;72379;50.880;4.350;2024-01-15T12:57:31;4.60;;;1.80;;
21337;SDS011;72379;50.880;4.350;2024-01-15T12:59:56;6.33;;;1.63;;
21337;SDS011;72379;50.880;4.350;2024-01-15T13:02:22;5.63;;;1.17;;
21337;SDS011;72379;50.880;4.350;2024-01-15T13:04:48;6.33;;;1.47;;
21337;SDS011;72379;50.880;4.350;2024-01-15T13:07:14;8.90;;;1.03;;
21337;SDS011;72379;50.880;4.350;2024-01-15T13:09:40;7.43;;;1.80;;
21337;SDS011;72379;50.880;4.350;2024-01-15T13:12:07;7.37;;;1.30;;
21337;SDS011;72379;50.880;4.350;2024-01-15T13:14:33;7.60;;;1.70;;
21337;SDS011;72379;50.880;4.350;2024-01-15T13:16:59;4.00;;;1.33;;
21337;SDS011;72379;50.880;4.350;2024-01-15T13:19:25;8.07;;;1.80;;
21337;SDS011;72379;50.880;4.350;2024-01-15T13:21:53;5.47;;;1.50;;
21337;SDS011;72379;50.880;4.350;2024-01-15T13:24:18;8.27;;;2.83;;
21337;SDS011;72379;50.880;4.350;2024-01-15T13:26:45;10.00;;;1.57;;
21337;SDS011;72379;50.880;4.350;2024-01-15T13:29:10;3.67;;;1.43;;
21337;SDS011;72379;50.880;4.350;2024-01-15T13:31:36;5.60;;;1.63;;
21337;SDS011;72379;50.880;4.350;2024-01-15T13:34:03;8.60;;;1.20;;
21337;SDS011;72379;50.880;4.350;2024-01-15T13:36:29;7.70;;;1.60;;
21337;SDS011;72379;50.880;4.350;2024-01-15T13:38:55;6.47;;;1.20;;
21337;SDS011;72379;50.880;4.350;2024-01-15T13:41:21;7.13;;;2.00;;
21337;SDS011;72379;50.880;4.350;2024-01-15T13:43:53;14.53;;;1.93;;
21337;SDS011;72379;50.880;4.350;2024-01-15T13:46:19;7.13;;;1.20;;
21337;SDS011;72379;50.880;4.350;2024-01-15T13:48:46;7.47;;;1.53;;
21337;SDS011;72379;50.880;4.350;2024-01-15T13:51:12;8.20;;;1.70;;
21337;SDS011;72379;50.880;4.350;2024-01-15T13:53:39;5.90;;;1.77;;
21337;SDS011;72379;50.880;4.350;2024-01-15T13:56:05;2.50;;;1.10;;
21337;SDS011;72379;50.880;4.350;2024-01-15T13:58:32;5.37;;;1.47;;
21337;SDS011;72379;50.880;4.350;2024-01-15T14:00:58;5.03;;;1.57;;
21337;SDS011;72379;50.880;4.350;2024-01-15T14:03:24;9.30;;;2.10;;
21337;SDS011;72379;50.880;4.350;2024-01-15T14:05:53;3.93;;;1.73;;
21337;SDS011;72379;50.880;4.350;2024-01-15T14:08:19;7.07;;;1.77;;
21337;SDS011;72379;50.880;4.350;2024-01-15T14:10:45;4.50;;;2.37;;
21337;SDS011;72379;50.880;4.350;2024-01-15T14:13:11;1.80;;;0.90;;
21337;SDS011;72379;50.880;4.350;2024-01-15T14:15:37;5.77;;;2.33;;
21337;SDS011;72379;50.880;4.350;2024-01-15T14:18:03;6.77;;;1.70;;
21337;SDS011;72379;50.880;4.350;2024-01-15T14:20:29;5.70;;;2.30;;
21337;SDS011;72379;50.880;4.350;2024-01-15T14:22:56;7.43;;;1.80;;
21337;SDS011;72379;50.880;4.350;2024-01-15T14:25:21;6.97;;;1.73;;
21337;SDS011;72379;50.880;4.350;2024-01-15T14:27:48;8.17;;;2.00;;
21337;SDS011;72379;50.880;4.350;2024-01-15T14:30:14;2.13;;;0.87;;
21337;SDS011;72379;50.880;4.350;2024-01-15T14:32:41;0.70;;;0.70;;
21337;SDS011;72379;50.880;4.350;2024-01-15T14:35:07;5.67;;;0.73;;
21337;SDS011;72379;50.880;4.350;2024-01-15T14:37:38;1.93;;;0.60;;
21337;SDS011;72379;50.880;4.350;2024-01-15T14:40:05;4.17;;;0.80;;
21337;SDS011;72379;50.880;4.350;2024-01-15T14:42:32;2.50;;;0.83;;
21337;SDS011;72379;50.880;4.350;2024-01-15T14:45:00;7.07;;;1.50;;
21337;SDS011;72379;50.880;4.350;2024-01-15T14:47:27;3.07;;;1.00;;
21337;SDS011;72379;50.880;4.350;2024-01-15T14:49:54;3.33;;;1.73;;
21337;SDS011;72379;50.880;4.350;2024-01-15T14:52:22;3.47;;;1.20;;
21337;SDS011;72379;50.880;4.350;2024-01-15T14:54:49;6.77;;;1.73;;
21337;SDS011;72379;50.880;4.350;2024-01-15T14:57:15;4.53;;;1.80;;
21337;SDS011;72379;50.880;4.350;2024-01-15T14:59:41;5.97;;;1.30;;
21337;SDS011;72379;50.880;4.350;2024-01-15T15:02:07;2.77;;;1.50;;
21337;SDS011;72379;50.880;4.350;2024-01-15T15:04:33;2.37;;;1.30;;